Mackay, ID (83251)

7:46 AM MDT on August 28, 2015 (GMT -0600)
Stanley | | Change Station
CLOSE
Current Station
Airport
Location: Stanley,
Elevation: 6496 ft
Nearby Weather Stations
Active Advisory: Fire Weather Watch

Elev 6496 ft 44.17 °N, 114.93 °W | Updated 55 minutes ago

Clear
Clear
34 °F
Feels Like 34 °F
N
0
Wind Variable Wind from North
Gusts 12 mph

Today
High -- | Low -- °F
--% Chance of Precip.
Yesterday
High -- | Low -- °F
Precip. -- in
6:53 AM 8:18 PM
Waxing Gibbous, 98% visible
Pressure 30.11 in
Visibility -9999.0 miles
Clouds
Dew Point 27 °F
Humidity 75%
Rainfall 0.00 in
Snow Depth Not available.
UV Not available.
Pollen 8.70 out of 12
Air Quality Not available.
Flu Activity Not available.
METAR KSNT 281251Z AUTO 00000KT 01/M03 A3034 RMK AO1 SLP195 T00111028
Pressure 30.11 in
Visibility -9999.0 miles
Clouds
Dew Point 27 °F
Humidity 75%
Rainfall 0.00 in
Snow Depth Not available.
UV Not available.
Pollen 8.70 out of 12
Air Quality Not available.
Flu Activity Not available.
METAR KSNT 281251Z AUTO 00000KT 01/M03 A3034 RMK AO1 SLP195 T00111028

10-Day Weather Forecast

×

Almanac

Astronomy

Aug. 28, 2015 Rise Set
Actual Time
Civil Twilight
Nautical Twilight
Astronomical Twilight
Moon
Length of Visible Light
Length of Day
Tomorrow will be .
, % of the Moon is Illuminated

Today's Extremes

State Highs State Lows

Community

WunderPhotos

Upload Photos

1,850,377 photos uploaded!

WunderBlogs® & News

Nearby

Air Quality

  Air Quality AQ Index Pollutant
Not available.

Snow Depth

Station Depth Elevation

Earthquake Activity

City Distance Mag. Time & Date
Minimum magnitude displayed is 2.5.

Coastal Water Temperatures

Place Temperature

Stations

Nearby Weather Stations

Station Location Temp. Windchill Dew Point Humidity Wind Precip. Elev Updated Type
                   
Fire Weather Watch
Statement as of 3:35 AM MDT on August 28, 2015

... Fire Weather Watch in effect from Saturday afternoon through
Saturday evening for gusty winds and low humidity for Idaho fire
weather zones 475 and 476...

The National Weather Service in Pocatello has issued a Fire
Weather Watch... which is in effect from Saturday afternoon
through Saturday evening.

* Affected area... Idaho fire weather zones 475 and 476.

* Wind... southwest winds of 15 to 25 mph with gusts of 30 to 40
mph in the afternoon.

* Humidity... 15 to 20 percent.

* Thunderstorms... isolated thunderstorms are possible.

* Impacts... any fires that develop will likely spread rapidly.
Outdoor burning is not recommended.

Precautionary/preparedness actions...

A Fire Weather Watch means that critical fire weather conditions
are forecast to occur. Listen for later forecasts and possible
red flag warnings.